Flight Track Log - Related Links

Times and Time Zones

All times are in EDT time to prevent confusion due to time zone crossing. See the CES5432 flight status page for this flight to view local times or setup timezone preferences in your user account.

Time Position Orientation Groundspeed Altitude Reporting Facility
EDT Latitude Longitude Course Direction KTS MPH feet Rate Location/Type
Fri 01:49:00 AM 30.3645 118.6830 276° West  Level Estimated
Fri 01:50:00 AM 30.3722 118.5736 275° West  Level Estimated
Fri 01:51:00 AM 30.3799 118.4641 275° West  Level Estimated
Fri 01:52:00 AM 30.3874 118.3546 275° West  Level Estimated
Fri 01:53:00 AM 30.3949 118.2451 275° West  Level Estimated
Fri 01:54:00 AM 30.4023 118.1356 274° West  Level Estimated
Fri 01:55:00 AM 30.4095 118.0261 274° West  Level Estimated
Fri 01:56:00 AM 30.4167 117.9165 274° West  Level Estimated
Fri 01:57:00 AM 30.4238 117.8070 274° West  Level Estimated
Fri 01:58:00 AM 30.4308 117.6974 274° West  Level Estimated
Fri 01:59:00 AM 30.4378 117.5878 274° West  Level Estimated
Fri 02:00:00 AM 30.4446 117.4782 274° West  Level Estimated
Fri 02:01:00 AM 30.4513 117.3686 274° West  Level Estimated
Fri 02:02:00 AM 30.4580 117.2589 274° West  Level Estimated
Fri 02:03:00 AM 30.4645 117.1493 274° West  Level Estimated
Fri 02:04:00 AM 30.4710 117.0396 274° West  Level Estimated
Fri 02:05:00 AM 30.4773 116.9299 274° West  Level Estimated
Fri 02:06:00 AM 30.4836 116.8202 274° West  Level Estimated
Fri 02:07:00 AM 30.4898 116.7105 274° West  Level Estimated
Fri 02:08:00 AM 30.4959 116.6008 274° West  Level Estimated
Fri 02:09:00 AM 30.5019 116.4911 274° West  Level Estimated
Fri 02:10:00 AM 30.5078 116.3813 274° West  Level Estimated
Fri 02:11:00 AM 30.5136 116.2715 274° West  Level Estimated
Fri 02:12:00 AM 30.5193 116.1618 273° West  Level Estimated
Fri 02:13:00 AM 30.5249 116.0520 273° West  Level Estimated
Fri 02:14:00 AM 30.5305 115.9422 273° West  Level Estimated
Fri 02:15:00 AM 30.5359 115.8323 273° West  Level Estimated
Fri 02:16:00 AM 30.5413 115.7225 273° West  Level Estimated
Fri 02:17:00 AM 30.5465 115.6127 273° West  Level Estimated
Fri 02:18:00 AM 30.5517 115.5028 273° West  Level Estimated
Fri 02:19:00 AM 30.5568 115.3930 273° West  Level Estimated
Fri 02:20:00 AM 30.5618 115.2831 273° West  Level Estimated
Fri 02:21:00 AM 30.5667 115.1732 273° West  Level Estimated
Fri 02:22:00 AM 30.5715 115.0633 273° West  Level Estimated
Fri 02:23:00 AM 30.5762 114.9534 273° West  Level Estimated
Fri 02:24:00 AM 30.5808 114.8435 273° West  Level Estimated
Fri 02:25:00 AM 30.5853 114.7335 273° West  Level Estimated
Fri 02:26:00 AM 30.5897 114.6236 273° West  Level Estimated
Fri 02:27:00 AM 30.5941 114.5136 273° West  Level Estimated
Fri 02:28:00 AM 30.5983 114.4037 273° West  Level Estimated
Fri 02:29:00 AM 30.6025 114.2937 273° West  Level Estimated
Fri 02:30:00 AM 30.6065 114.1837 272° West  Level Estimated
Fri 02:31:00 AM 30.6105 114.0737 272° West  Level Estimated
Fri 02:32:00 AM 30.6144 113.9638 272° West  Level Estimated
Fri 02:33:00 AM 30.6182 113.8537 272° West  Level Estimated
Fri 02:34:00 AM 30.6218 113.7437 272° West  Level Estimated
Fri 02:35:00 AM 30.6255 113.6337 272° West  Level Estimated
Fri 02:36:00 AM 30.6290 113.5237 272° West  Level Estimated
Fri 02:37:00 AM 30.6324 113.4136 272° West  Level Estimated
Fri 02:38:00 AM 30.6357 113.3036 272° West  Level Estimated
Fri 02:39:00 AM 30.6389 113.1935 272° West  Level Estimated
Fri 02:40:00 AM 30.6420 113.0835 272° West  Level Estimated
Fri 02:41:00 AM 30.6451 112.9734 272° West  Level Estimated
Fri 02:42:00 AM 30.6480 112.8633 272° West  Level Estimated
Fri 02:43:00 AM 30.6509 112.7533 272° West  Level Estimated
Fri 02:44:00 AM 30.6537 112.6432 272° West  Level Estimated
Fri 02:45:00 AM 30.6563 112.5331 272° West  Level Estimated
Fri 02:46:00 AM 30.6589 112.4230 272° West  Level Estimated
Fri 02:47:00 AM 30.6614 112.3129 272° West  Level Estimated
Fri 02:48:00 AM 30.6638 112.2028 271° West  Level Estimated
Fri 02:49:00 AM 30.6661 112.0926 271° West  Level Estimated
Fri 02:50:00 AM 30.6683 111.9825 271° West  Level Estimated
Fri 02:51:00 AM 30.6704 111.8724 271° West  Level Estimated
Fri 02:52:00 AM 30.6724 111.7623 271° West  Level Estimated
Fri 02:53:00 AM 30.6744 111.6521 271° West  Level Estimated
Fri 02:54:00 AM 30.6762 111.5420 271° West  Level Estimated
Fri 02:55:00 AM 30.6779 111.4318 271° West  Level Estimated
Fri 02:56:00 AM 30.6796 111.3217 271° West  Level Estimated
Fri 02:57:00 AM 30.6811 111.2115 271° West  Level Estimated
Fri 02:58:00 AM 30.6826 111.1014 271° West  Level Estimated
Fri 02:59:00 AM 30.6840 110.9912 271° West  Level Estimated
Fri 03:00:00 AM 30.6852 110.8811 271° West  Level Estimated
Fri 03:01:00 AM 30.6864 110.7709 271° West  Level Estimated
Fri 03:02:00 AM 30.6875 110.6607 271° West  Level Estimated
Fri 03:03:00 AM 30.6885 110.5506 271° West  Level Estimated
Fri 03:04:00 AM 30.6894 110.4404 271° West  Level Estimated
Fri 03:05:00 AM 30.6903 110.3302 271° West  Level Estimated
Fri 03:06:00 AM 30.6910 110.2200 270° West  Level Estimated
Fri 03:07:00 AM 30.6916 110.1099 270° West  Level Estimated
Fri 03:08:00 AM 30.6921 109.9997 270° West  Level Estimated
Fri 03:09:00 AM 30.6926 109.8895 270° West  Level Estimated
Fri 03:10:00 AM 30.6929 109.7793 270° West  Level Estimated
Fri 03:11:00 AM 30.6932 109.6692 270° West  Level Estimated
Fri 03:12:00 AM 30.6933 109.5590 270° West  Level Estimated
Fri 03:13:00 AM 30.6934 109.4488 270° West  Level Estimated
Fri 03:14:00 AM 30.6934 109.3386 270° West  Level Estimated
Fri 03:15:00 AM 30.6933 109.2284 270° West  Level Estimated
Fri 03:16:00 AM 30.6931 109.1183 270° West  Level Estimated
Fri 03:17:00 AM 30.6928 109.0081 270° West  Level Estimated
Fri 03:18:00 AM 30.6924 108.8979 270° West  Level Estimated
Fri 03:19:00 AM 30.6919 108.7877 270° West  Level Estimated
Fri 03:20:00 AM 30.6913 108.6775 270° West  Level Estimated
Fri 03:21:00 AM 30.6906 108.5674 270° West  Level Estimated
Fri 03:22:00 AM 30.6898 108.4572 270° West  Level Estimated
Fri 03:23:00 AM 30.6890 108.3470 270° West  Level Estimated
Fri 03:24:00 AM 30.6880 108.2368 269° West  Level Estimated
Fri 03:25:00 AM 30.6870 108.1267 269° West  Level Estimated
Fri 03:26:00 AM 30.6858 108.0165 269° West  Level Estimated
Fri 03:27:00 AM 30.6846 107.9063 269° West  Level Estimated
Fri 03:28:00 AM 30.6833 107.7962 269° West  Level Estimated
Fri 03:29:00 AM 30.6819 107.6860 269° West  Level Estimated
Fri 03:30:00 AM 30.6803 107.5759 269° West  Level Estimated
Fri 03:31:00 AM 30.6787 107.4657 269° West  Level Estimated
Fri 03:32:00 AM 30.6770 107.3556 269° West  Level Estimated
Fri 03:33:00 AM 30.6752 107.2455 269° West  Level Estimated
Fri 03:34:00 AM 30.6734 107.1353 269° West  Level Estimated
Fri 03:35:00 AM 30.6714 107.0252 269° West  Level Estimated
Fri 03:36:00 AM 30.6693 106.9150 269° West  Level Estimated
Fri 03:37:00 AM 30.6672 106.8049 269° West  Level Estimated
Fri 03:38:00 AM 30.6649 106.6948 269° West  Level Estimated
Fri 03:39:00 AM 30.6626 106.5847 269° West  Level Estimated
Fri 03:40:00 AM 30.6601 106.4746 269° West  Level Estimated
Fri 03:41:00 AM 30.6576 106.3645 268° West  Level Estimated
Fri 03:42:00 AM 30.6550 106.2544 268° West  Level Estimated
Fri 03:43:00 AM 30.6522 106.1443 268° West  Level Estimated
Fri 03:44:00 AM 30.6494 106.0342 268° West  Level Estimated
Fri 03:45:00 AM 30.6465 105.9241 268° West  Level Estimated
Fri 03:46:00 AM 30.6435 105.8141 268° West  Level Estimated
Fri 03:47:00 AM 30.6404 105.7040 268° West  Level Estimated
Fri 03:48:00 AM 30.6373 105.5939 268° West  Level Estimated
Fri 03:49:00 AM 30.6340 105.4839 268° West  Level Estimated
Fri 03:50:00 AM 30.6306 105.3738 268° West  Level Estimated
Fri 03:51:00 AM 30.6271 105.2638 268° West  Level Estimated
Fri 03:52:00 AM 30.6236 105.1538 268° West  Level Estimated
Fri 03:53:00 AM 30.6199 105.0438 268° West  Level Estimated
Fri 03:54:00 AM 30.6162 104.9338 268° West  Level Estimated
Fri 03:55:00 AM 30.6124 104.8238 268° West  Level Estimated
Fri 03:56:00 AM 30.6085 104.7138 268° West  Level Estimated
Fri 03:57:00 AM 30.6043 104.6000 268° West  Level Estimated
Fri 03:58:00 AM 30.6000 104.4862 268° West  Level Estimated
Fri 03:59:00 AM 30.5957 104.3725 267° West  Level Estimated
Fri 04:00:00 AM 30.5912 104.2587 267° West  Level Estimated
Fri 04:01:00 AM 30.5867 104.1450 267° West  Level Estimated
Fri 04:02:00 AM 30.5820 104.0313 267° West  Level Estimated
Fri 04:03:00 AM 30.5785 103.9471 267° West  Level Estimated
Fri 04:04:00 AM 30.5785 103.9471 North  Level Estimated
Fri 04:05:00 AM 30.5785 103.9471 North  Level Estimated
Fri 04:06:00 AM 30.5785 103.9471 North  Level Estimated
Fri 04:07:00 AM 30.5785 103.9471 North  Level Estimated
Fri 04:08:00 AM 30.5785 103.9471 North  Level Estimated
Fri 04:09:00 AM 30.5785 103.9471 North  Level Estimated
Fri 04:10:00 AM 30.5785 103.9471 North  Level Estimated
Fri 04:11:00 AM 30.5785 103.9471 North  Level Estimated
Fri 04:12:00 AM 30.5785 103.9471 North  Level Estimated
Fri 04:13:00 AM 30.5785 103.9471 North  Level Estimated

Login

Don't have an account? Register now (free) for customized features, flight alerts, and more!